• Join FlightAware (Why Join?)
  • Login
  • US Flag 
03:19AM EST


 

Airport Tracker/Info


-or-


 

Live Flight TrackerFlight Track Log ✈ UAL1848 ✈ 11-Apr-2012 ✈ KORD - KBKL

Flight Track Log - Related Links

Times and Time Zones

All times are in EDT time to prevent confusion due to time zone crossing. See the UAL1848 flight status page for this flight to view local times or setup timezone preferences in your user account.

Time Position Orientation Groundspeed Altitude Reporting Facility
EDT Latitude Longitude Course Direction KTS MPH feet Rate Location/Type
01:24PM 42.0167 -87.9167 45° Northeast 181 208 2,900  Level Chicago TRACON
01:25PM 42.0667 -87.8500 39° Northeast 251 289 5,000 1,920 Climbing Chicago TRACON
01:27PM 42.1642 -87.7419 96° East 246 283 8,800 2,220 Climbing Chicago Center
01:28PM 42.1564 -87.6358 96° East 278 320 11,800 2,940 Climbing Chicago Center
01:29PM 42.1461 -87.5072 96° East 316 364 14,700 2,820 Climbing Chicago Center
01:30PM 42.1356 -87.3758 96° East 340 391 17,500 2,700 Climbing Chicago Center
01:31PM 42.1244 -87.2306 96° East 362 417 20,100 2,400 Climbing Chicago Center
01:32PM 42.1133 -87.0797 87° East 381 438 22,300 2,160 Climbing Chicago Center
01:33PM 42.1186 -86.9283 87° East 395 455 24,500 2,160 Climbing Chicago Center
01:34PM 42.1236 -86.7742 87° East 406 467 26,700 2,400 Climbing Chicago Center
01:35PM 42.1300 -86.5975 87° East 424 488 29,400 2,100 Climbing Chicago Center
01:36PM 42.1364 -86.4433 88° East 419 482 31,000 780 Climbing Chicago Center
01:37PM 42.1406 -86.2806 88° East 424 488 31,000  Level Chicago Center
01:38PM 42.1442 -86.1097 90° East 445 512 31,000  Level Chicago Center
01:39PM 42.1436 -85.9444 93° East 445 512 31,000  Level Chicago Center
01:40PM 42.1369 -85.7906 92° East 445 512 31,000  Level Chicago Center
01:41PM 42.1317 -85.6231 93° East 445 512 31,000  Level Chicago Center
01:42PM 42.1258 -85.4525 91° East 445 512 31,000  Level Chicago Center
01:43PM 42.1217 -85.2422 92° East 462 532 31,000  Level Cleveland Center
01:44PM 42.1161 -85.0681 93° East 467 537 31,000  Level Cleveland Center
01:45PM 42.1100 -84.9025 93° East 462 532 31,000  Level Cleveland Center
01:46PM 42.1022 -84.7172 93° East 462 532 31,000  Level Cleveland Center
01:47PM 42.0958 -84.5458 94° East 462 532 31,000  Level Cleveland Center
01:48PM 42.0869 -84.3775 93° East 462 532 31,000 -60 Level Cleveland Center
01:49PM 42.0814 -84.2289 93° East 452 520 30,900 -660 Descending Cleveland Center
01:50PM 42.0742 -84.0578 94° East 452 520 29,700 -1,680 Descending Cleveland Center
01:51PM 42.0647 -83.8836 93° East 441 507 27,600 -2,220 Descending Cleveland Center
01:52PM 42.0586 -83.7267 93° East 420 483 25,300 -1,380 Descending Cleveland Center
01:53PM 42.0522 -83.5753 96° East 414 476 24,900 -180 Descending Cleveland Center
01:54PM 42.0411 -83.4378 95° East 409 471 25,000  Climbing Cleveland Center
01:55PM 42.0303 -83.2836 98° East 409 471 25,000 -480 Level Cleveland Center
01:56PM 42.0133 -83.1153 97° East 409 471 24,100 -1,200 Descending Cleveland Center
01:57PM 41.9997 -82.9694 98° East 403 464 22,700 -1,500 Descending Cleveland Center
01:58PM 41.9858 -82.8292 99° East 390 449 21,200 -1,500 Descending Cleveland Center
01:59PM 41.9697 -82.6889 96° East 385 443 19,800 -1,500 Descending Cleveland Center
02:00PM 41.9597 -82.5544 99° East 373 429 18,300 -1,440 Descending Cleveland Center
02:01PM 41.9453 -82.4256 98° East 367 422 17,000 -1,500 Descending Cleveland Center
02:02PM 41.9325 -82.2969 98° East 350 403 15,300 -1,740 Descending Cleveland Center
02:03PM 41.9197 -82.1767 98° East 344 396 13,600 -1,980 Descending Cleveland Center
02:04PM 41.9067 -82.0533 99° East 334 384 11,400 -1,800 Descending Cleveland Center
02:05PM 41.8936 -81.9417 99° East 328 377 10,000 -2,040 Descending Cleveland Center
02:06PM 41.8822 -81.8408 102° East 295 339 7,400 -1,920 Descending Cleveland Center
02:07PM 41.8686 -81.7542 127° Southeast 271 312 6,200 -1,080 Descending Cleveland Center
02:08PM 41.8297 -81.6839 128° Southeast 241 277 5,300 -1,080 Descending Cleveland Center
02:09PM 41.7947 -81.6247 130° Southeast 216 249 4,100 -960 Descending Cleveland Center
02:10PM 41.7597 -81.5686 142° Southeast 196 226 3,400 -600 Descending Cleveland Center
02:11PM 41.7164 -81.5233 140° Southeast 196 226 3,000 -240 Descending Cleveland Center
02:12PM 41.6708 -81.4728 191° South 196 226 3,000  Level Cleveland Center
02:13PM 41.6186 -81.4858 232° Southwest 173 199 3,000 -300 Level Cleveland Center
02:14PM 41.5764 -81.5575 240° Southwest 191 220 2,400 -540 Descending Cleveland Center
02:15PM 41.5531 -81.6125 235° Southwest 165 190 1,800 -660 Descending Cleveland Center
02:16PM 41.5317 -81.6539 235° Southwest 132 152 1,100 -720 Descending Cleveland Center